Time;durP1;ratioP1;P1;durP2;ratioP2;P2;SDS_P1;SDS_P2;PMS_P1;PMS_P2;Temp;Humidity;BMP_temperature;BMP_pressure;BME280_temperature;BME280_humidity;BME280_pressure;Samples;Min_cycle;Max_cycle;Signal;HPM_P1;HPM_P2
2022/01/19 00:00:15;;;;;;;13.30;7.95;;;3.10;87.10;;;;;;5091417;28;20437;-72
2022/01/19 00:02:40;;;;;;;17.70;8.03;;;3.00;87.70;;;;;;5090500;28;20211;-72
2022/01/19 00:05:08;;;;;;;16.83;7.57;;;3.00;88.00;;;;;;5090978;28;20954;-72
2022/01/19 00:07:35;;;;;;;13.82;8.20;;;2.80;88.30;;;;;;5090177;28;20246;-72
2022/01/19 00:10:05;;;;;;;13.75;8.27;;;2.70;88.60;;;;;;5091653;28;20179;-72
2022/01/19 00:12:34;;;;;;;19.30;8.48;;;2.60;89.20;;;;;;5091763;28;20188;-73
2022/01/19 00:15:00;;;;;;;12.80;7.25;;;2.50;89.70;;;;;;5091315;28;20248;-71
2022/01/19 00:17:25;;;;;;;16.90;7.47;;;2.40;90.00;;;;;;5091882;28;20274;-72
2022/01/19 00:19:52;;;;;;;17.87;8.90;;;2.40;90.20;;;;;;5090186;28;20802;-72
2022/01/19 00:22:17;;;;;;;17.53;8.63;;;2.30;90.40;;;;;;5091336;28;20190;-70
2022/01/19 00:24:43;;;;;;;14.63;8.43;;;2.20;90.70;;;;;;5090812;28;20417;-71
2022/01/19 00:27:11;;;;;;;19.02;9.00;;;2.20;90.80;;;;;;5090945;28;20910;-71
2022/01/19 00:29:37;;;;;;;15.88;8.50;;;2.20;90.90;;;;;;5091237;28;20211;-71
2022/01/19 00:32:03;;;;;;;16.58;8.77;;;2.10;91.00;;;;;;5091492;28;20212;-70
2022/01/19 00:34:29;;;;;;;14.97;8.47;;;2.10;91.20;;;;;;5096514;28;20199;-71
2022/01/19 00:36:55;;;;;;;16.53;9.07;;;2.10;91.30;;;;;;5093482;28;20494;-70
2022/01/19 00:39:23;;;;;;;19.50;9.98;;;2.00;91.40;;;;;;5092126;28;20598;-70
2022/01/19 00:41:49;;;;;;;17.58;8.38;;;2.00;91.50;;;;;;5090692;28;20219;-70
2022/01/19 00:44:15;;;;;;;21.93;9.87;;;1.90;91.70;;;;;;5090611;28;20828;-70
2022/01/19 00:46:40;;;;;;;20.60;10.20;;;1.90;91.80;;;;;;5091154;28;20215;-71
2022/01/19 00:49:06;;;;;;;18.97;9.27;;;1.90;91.90;;;;;;5090641;28;20182;-70
2022/01/19 00:51:32;;;;;;;18.87;9.67;;;1.90;92.10;;;;;;5090105;28;20191;-70
2022/01/19 00:53:57;;;;;;;16.03;8.80;;;1.90;92.10;;;;;;5092168;28;20198;-71
2022/01/19 00:56:23;;;;;;;20.80;9.97;;;1.90;92.10;;;;;;5091302;28;20198;-69
2022/01/19 00:58:49;;;;;;;20.13;9.60;;;1.80;92.10;;;;;;5091951;28;20582;-71
2022/01/19 01:01:15;;;;;;;19.30;9.93;;;1.80;92.10;;;;;;5092004;28;20175;-71
2022/01/19 01:03:40;;;;;;;17.73;9.80;;;1.70;92.20;;;;;;5092027;28;20189;-72
2022/01/19 01:06:06;;;;;;;17.57;9.47;;;1.70;92.50;;;;;;5092793;28;20437;-71
2022/01/19 01:08:32;;;;;;;21.33;10.33;;;1.70;92.60;;;;;;5092719;28;20187;-70
2022/01/19 01:10:58;;;;;;;19.90;10.10;;;1.70;92.60;;;;;;5092079;28;20183;-72
2022/01/19 01:16:05;;;;;;;26.93;11.07;;;1.70;92.70;;;;;;5090192;28;20294;-70
2022/01/19 01:18:34;;;;;;;19.75;9.98;;;1.70;92.70;;;;;;5091310;28;20719;-70
2022/01/19 01:21:00;;;;;;;19.13;9.63;;;1.60;92.80;;;;;;5090859;28;20244;-71
2022/01/19 01:23:29;;;;;;;25.75;11.07;;;1.70;92.90;;;;;;5091239;28;20172;-71
2022/01/19 01:25:56;;;;;;;29.73;11.82;;;1.60;93.00;;;;;;5083048;28;20669;-71
2022/01/19 01:28:22;;;;;;;20.35;10.88;;;1.70;93.10;;;;;;5091465;28;20309;-70
2022/01/19 01:30:47;;;;;;;22.42;10.85;;;1.70;93.10;;;;;;5090650;28;20702;-71
2022/01/19 01:33:14;;;;;;;21.17;11.77;;;1.70;93.10;;;;;;5089927;28;20266;-72
2022/01/19 01:35:40;;;;;;;27.85;11.90;;;1.70;93.20;;;;;;5088599;28;20888;-71
2022/01/19 01:38:06;;;;;;;25.70;11.48;;;1.70;93.20;;;;;;5090933;28;20650;-70
2022/01/19 01:40:34;;;;;;;23.85;11.27;;;1.70;93.00;;;;;;5090090;28;20366;-72
2022/01/19 01:43:03;;;;;;;22.23;11.25;;;1.70;92.90;;;;;;5090556;28;20178;-71
2022/01/19 01:45:32;;;;;;;21.30;10.30;;;1.70;92.80;;;;;;5088645;28;20191;-71
2022/01/19 01:48:34;;;;;;;25.75;12.25;;;1.60;92.80;;;;;;5089364;28;20175;-71
2022/01/19 01:53:37;;;;;;;22.30;10.40;;;1.40;93.00;;;;;;5088203;28;20193;-72
2022/01/19 01:56:16;;;;;;;20.08;10.82;;;1.40;93.40;;;;;;5090724;28;20191;-71
2022/01/19 01:58:47;;;;;;;22.23;11.90;;;1.40;93.60;;;;;;5091163;28;20266;-71
2022/01/19 02:01:13;;;;;;;21.98;11.07;;;1.40;93.70;;;;;;5090686;28;20175;-71
2022/01/19 02:03:40;;;;;;;21.90;10.87;;;1.40;93.80;;;;;;5090659;28;20236;-71
2022/01/19 02:06:24;;;;;;;24.48;10.52;;;1.40;93.70;;;;;;5090341;28;20615;-72
2022/01/19 02:21:38;;;;;;;20.45;10.35;;;1.40;94.00;;;;;;5091733;28;20254;-70
2022/01/19 02:22:45;;;;;;;25.70;10.90;;;1.40;94.00;;;;;;5078310;28;20197;-71
2022/01/19 02:25:11;;;;;;;21.20;11.07;;;1.40;94.00;;;;;;5090280;28;20552;-72
2022/01/19 02:41:05;;;;;;;23.83;11.70;;;1.60;94.00;;;;;;5087583;28;20202;-70
2022/01/19 02:43:31;;;;;;;22.60;10.47;;;1.60;93.80;;;;;;5092701;28;20175;-71
2022/01/19 02:51:25;;;;;;;25.73;11.38;;;1.70;93.40;;;;;;5093722;28;20185;-72
2022/01/19 02:53:51;;;;;;;21.33;14.00;;;1.60;93.40;;;;;;5093862;28;20302;-71
2022/01/19 02:56:26;;;;;;;27.13;11.17;;;1.60;93.50;;;;;;5093354;28;20298;-71
2022/01/19 02:58:58;;;;;;;26.63;11.88;;;1.60;93.40;;;;;;5093549;28;20218;-71
2022/01/19 03:09:47;;;;;;;26.48;11.73;;;1.50;93.70;;;;;;5092146;28;20191;-71
2022/01/19 03:12:13;;;;;;;19.50;11.85;;;1.40;93.80;;;;;;5093138;28;20186;-71
2022/01/19 03:14:39;;;;;;;22.30;10.80;;;1.40;93.80;;;;;;5093009;28;20611;-71
2022/01/19 03:17:06;;;;;;;21.77;11.05;;;1.40;93.70;;;;;;5093250;28;20432;-73
2022/01/19 03:19:34;;;;;;;21.75;10.80;;;1.40;93.80;;;;;;5099412;28;20179;-70
2022/01/19 03:22:00;;;;;;;20.33;11.05;;;1.30;93.80;;;;;;5102587;28;20661;-70
2022/01/19 03:24:26;;;;;;;20.15;10.88;;;1.30;93.90;;;;;;5096307;28;20175;-69
2022/01/19 03:26:52;;;;;;;18.50;9.57;;;1.30;93.90;;;;;;5094390;28;20255;-70
2022/01/19 03:29:18;;;;;;;23.90;11.87;;;1.30;93.80;;;;;;5094538;28;20293;-70
2022/01/19 03:31:44;;;;;;;25.67;10.23;;;1.30;93.80;;;;;;5096798;28;20496;-73
2022/01/19 03:34:11;;;;;;;24.13;11.03;;;1.20;93.90;;;;;;5100929;28;20237;-71
2022/01/19 03:36:38;;;;;;;18.55;9.48;;;1.20;94.00;;;;;;5099256;28;20472;-71
2022/01/19 03:39:04;;;;;;;21.85;10.48;;;1.20;94.00;;;;;;5098173;28;20192;-71
2022/01/19 03:41:29;;;;;;;22.10;11.27;;;1.30;93.80;;;;;;5102257;28;20744;-73
2022/01/19 03:43:55;;;;;;;24.50;11.47;;;1.20;93.70;;;;;;5102685;28;20230;-70
2022/01/19 03:46:31;;;;;;;22.90;11.13;;;1.10;93.80;;;;;;5103304;28;20317;-70
2022/01/19 03:49:08;;;;;;;30.50;12.23;;;1.10;93.90;;;;;;5094809;28;20817;-70
2022/01/19 03:51:33;;;;;;;32.60;13.20;;;1.10;94.00;;;;;;5100919;28;20236;-71
2022/01/19 03:53:59;;;;;;;20.97;11.20;;;1.10;94.10;;;;;;5101550;28;20191;-70
2022/01/19 03:56:25;;;;;;;18.70;11.00;;;1.10;94.10;;;;;;5102729;28;20545;-71
2022/01/19 03:58:51;;;;;;;28.60;12.33;;;1.10;94.20;;;;;;5099035;28;20171;-70
2022/01/19 04:01:17;;;;;;;23.90;12.63;;;1.10;94.10;;;;;;5094337;28;20661;-71
2022/01/19 04:06:23;;;;;;;20.10;10.63;;;1.10;94.00;;;;;;5094234;28;20266;-72
2022/01/19 04:08:48;;;;;;;18.83;11.07;;;1.10;93.90;;;;;;5093655;28;20682;-70
2022/01/19 04:11:17;;;;;;;26.30;12.17;;;1.00;93.80;;;;;;5092180;28;20224;-71
2022/01/19 04:14:28;;;;;;;23.88;11.65;;;1.00;93.90;;;;;;5092594;28;20425;-70
2022/01/19 04:16:29;;;;;;;18.85;10.65;;;1.00;94.00;;;;;;5091622;28;20203;-72
2022/01/19 04:19:08;;;;;;;23.63;11.40;;;0.90;94.00;;;;;;5098172;28;20201;-71
2022/01/19 04:21:34;;;;;;;26.67;11.57;;;0.80;94.20;;;;;;5110617;28;20239;-70
2022/01/19 04:24:00;;;;;;;26.23;11.53;;;0.80;94.40;;;;;;5108796;28;20179;-70
2022/01/19 04:26:26;;;;;;;22.95;12.20;;;0.90;94.50;;;;;;5092544;28;20199;-72
2022/01/19 04:28:51;;;;;;;28.27;12.03;;;0.80;94.40;;;;;;5091783;28;20202;-70
2022/01/19 04:31:17;;;;;;;24.20;12.17;;;0.70;94.50;;;;;;5091753;28;20247;-72
2022/01/19 04:33:44;;;;;;;22.73;11.87;;;0.80;94.50;;;;;;5091951;28;20218;-72
2022/01/19 05:15:45;;;;;;;25.73;12.98;;;0.70;95.20;;;;;;5091182;28;20325;-70
2022/01/19 05:18:11;;;;;;;28.90;13.20;;;0.80;94.90;;;;;;5091638;28;20199;-71
2022/01/19 05:20:37;;;;;;;35.33;13.75;;;0.70;94.80;;;;;;5089119;28;21650;-73
2022/01/19 05:23:03;;;;;;;33.13;13.60;;;0.70;94.80;;;;;;5091121;28;20258;-70
2022/01/19 05:25:28;;;;;;;32.90;13.17;;;0.70;94.70;;;;;;5090798;28;20211;-70
2022/01/19 05:27:54;;;;;;;31.07;13.50;;;0.70;94.70;;;;;;5090929;28;20187;-71
2022/01/19 05:30:20;;;;;;;28.60;11.97;;;0.80;94.70;;;;;;5090376;28;20187;-70
2022/01/19 05:32:46;;;;;;;25.63;12.80;;;0.80;94.50;;;;;;5091017;28;20228;-72
2022/01/19 05:35:12;;;;;;;29.33;13.85;;;0.80;94.40;;;;;;5090396;28;20295;-70
2022/01/19 05:37:38;;;;;;;33.00;12.73;;;0.80;94.30;;;;;;5090261;28;20214;-70
2022/01/19 05:40:09;;;;;;;25.63;11.90;;;0.80;94.20;;;;;;5090490;28;20214;-71
2022/01/19 05:42:34;;;;;;;31.40;13.60;;;0.90;94.20;;;;;;5090710;28;20252;-71
2022/01/19 05:45:00;;;;;;;27.60;13.20;;;0.90;94.10;;;;;;5090166;28;20194;-73
2022/01/19 05:47:26;;;;;;;25.30;12.83;;;0.90;94.10;;;;;;5090517;28;20291;-71
2022/01/19 05:49:52;;;;;;;31.03;12.73;;;0.90;94.00;;;;;;5090156;28;20433;-71
2022/01/19 05:52:19;;;;;;;23.20;13.17;;;0.90;94.00;;;;;;5090893;28;20554;-71
2022/01/19 05:54:45;;;;;;;22.83;13.07;;;0.90;94.00;;;;;;5090438;28;20206;-71
2022/01/19 05:57:11;;;;;;;30.50;13.10;;;0.90;94.00;;;;;;5090535;28;20207;-71
2022/01/19 05:59:36;;;;;;;28.83;14.10;;;0.90;93.90;;;;;;5090252;28;20405;-71
2022/01/19 06:02:02;;;;;;;28.20;12.63;;;0.90;94.00;;;;;;5092692;28;20224;-71
2022/01/19 06:04:28;;;;;;;30.45;12.80;;;0.90;94.00;;;;;;5094660;28;20179;-71
2022/01/19 06:06:56;;;;;;;25.97;13.00;;;0.90;93.90;;;;;;5094053;28;20294;-71
2022/01/19 06:09:34;;;;;;;29.67;13.35;;;0.90;93.90;;;;;;5094220;28;20179;-69
2022/01/19 06:12:05;;;;;;;28.00;12.02;;;0.90;93.80;;;;;;5086395;28;20183;-73
2022/01/19 06:14:35;;;;;;;24.83;12.55;;;0.80;93.70;;;;;;5092612;28;20575;-72
2022/01/19 06:17:04;;;;;;;25.70;12.98;;;0.90;93.80;;;;;;5093816;28;20198;-72
2022/01/19 06:19:30;;;;;;;23.77;12.07;;;0.90;93.70;;;;;;5089549;28;20556;-73
2022/01/19 06:21:55;;;;;;;30.67;13.87;;;0.80;93.70;;;;;;5093443;28;20175;-72
2022/01/19 06:24:21;;;;;;;28.10;12.73;;;0.80;93.70;;;;;;5094227;28;20241;-71
2022/01/19 06:26:47;;;;;;;27.40;12.75;;;0.80;93.90;;;;;;5094051;28;20201;-71
2022/01/19 06:29:13;;;;;;;21.70;10.57;;;0.80;94.00;;;;;;5094101;28;20266;-72
2022/01/19 06:31:39;;;;;;;29.80;13.73;;;0.90;94.10;;;;;;5092122;28;20433;-71
2022/01/19 06:34:05;;;;;;;27.33;11.77;;;0.90;94.00;;;;;;5093473;28;20571;-71
2022/01/19 06:36:31;;;;;;;30.03;13.20;;;0.90;93.90;;;;;;5093256;28;20429;-72
2022/01/19 06:38:57;;;;;;;28.03;14.43;;;1.00;93.90;;;;;;5093840;28;20498;-72
2022/01/19 06:41:23;;;;;;;26.25;13.30;;;1.10;93.90;;;;;;5099608;28;20175;-72
2022/01/19 06:43:49;;;;;;;24.50;12.90;;;1.20;93.80;;;;;;5096379;28;20660;-70
2022/01/19 06:46:14;;;;;;;25.80;11.70;;;1.20;93.60;;;;;;5100994;28;20214;-70
2022/01/19 06:48:40;;;;;;;35.07;14.43;;;1.30;93.40;;;;;;5098395;28;20449;-71
2022/01/19 06:51:06;;;;;;;30.73;13.50;;;1.30;93.20;;;;;;5098753;28;20187;-73
2022/01/19 06:53:32;;;;;;;28.50;12.87;;;1.40;93.10;;;;;;5098668;28;20497;-71
2022/01/19 06:55:58;;;;;;;25.65;13.68;;;1.40;92.70;;;;;;5095274;28;20475;-71
2022/01/19 06:58:25;;;;;;;24.40;12.43;;;1.30;92.60;;;;;;5094072;28;20217;-71
2022/01/19 07:00:51;;;;;;;25.10;13.38;;;1.30;92.80;;;;;;5093553;28;20180;-71
2022/01/19 07:03:17;;;;;;;32.13;14.30;;;1.30;92.80;;;;;;5093821;28;20194;-72
2022/01/19 07:05:43;;;;;;;30.35;15.10;;;1.20;92.70;;;;;;5092301;28;20585;-70
2022/01/19 07:08:09;;;;;;;28.23;14.57;;;1.20;92.80;;;;;;5087962;28;20661;-72
2022/01/19 07:10:35;;;;;;;27.40;15.87;;;1.20;93.00;;;;;;5093273;28;21191;-72
2022/01/19 07:13:02;;;;;;;33.87;17.47;;;1.10;93.00;;;;;;5093454;28;20259;-72
2022/01/19 07:15:28;;;;;;;25.00;13.77;;;1.10;93.10;;;;;;5097025;28;20967;-73
2022/01/19 07:17:54;;;;;;;29.88;13.25;;;1.10;93.20;;;;;;5099663;28;20175;-72
2022/01/19 07:20:20;;;;;;;26.50;13.80;;;1.00;93.20;;;;;;5105560;28;20247;-71
2022/01/19 07:22:47;;;;;;;23.83;13.67;;;1.00;93.10;;;;;;5107524;28;20546;-73
2022/01/19 07:25:14;;;;;;;31.20;13.60;;;1.00;93.10;;;;;;5106317;28;20417;-72
2022/01/19 07:27:40;;;;;;;28.98;13.20;;;0.90;93.10;;;;;;5096066;28;20195;-73
2022/01/19 07:30:07;;;;;;;22.83;12.50;;;0.90;93.10;;;;;;5098673;28;20183;-70
2022/01/19 07:32:34;;;;;;;23.70;13.60;;;0.90;93.20;;;;;;5103624;28;20504;-73
2022/01/19 07:35:05;;;;;;;27.98;13.15;;;0.80;93.20;;;;;;5107990;28;20191;-72
2022/01/19 07:37:31;;;;;;;24.05;12.57;;;0.80;93.20;;;;;;5106034;28;20190;-73
2022/01/19 07:39:57;;;;;;;28.60;13.20;;;0.70;93.30;;;;;;5106850;28;20179;-71
2022/01/19 07:42:24;;;;;;;28.13;13.80;;;0.70;93.50;;;;;;5107132;28;20269;-71
2022/01/19 07:44:51;;;;;;;23.45;12.45;;;0.70;93.70;;;;;;5092997;28;20187;-71
2022/01/19 07:47:17;;;;;;;30.63;13.55;;;0.70;93.80;;;;;;5093345;28;20203;-72
2022/01/19 07:49:43;;;;;;;32.50;14.02;;;0.60;93.90;;;;;;5093160;28;20198;-71
2022/01/19 07:52:08;;;;;;;31.57;13.60;;;0.70;94.00;;;;;;5093155;28;20179;-72
2022/01/19 07:54:34;;;;;;;28.10;13.80;;;0.80;94.00;;;;;;5093300;28;20544;-71
2022/01/19 07:57:00;;;;;;;25.73;13.53;;;0.80;94.00;;;;;;5093378;28;20227;-72
2022/01/19 07:59:26;;;;;;;26.67;13.30;;;0.80;93.90;;;;;;5093509;28;20255;-73
2022/01/19 08:01:53;;;;;;;33.83;13.80;;;0.90;93.90;;;;;;5093630;28;20417;-73
2022/01/19 08:04:19;;;;;;;30.33;14.15;;;0.90;93.90;;;;;;5094024;28;20179;-71
2022/01/19 08:06:52;;;;;;;32.97;13.73;;;1.00;93.60;;;;;;5093286;28;20685;-73
2022/01/19 08:09:18;;;;;;;28.50;14.05;;;1.10;93.30;;;;;;5093815;28;20498;-72
2022/01/19 08:11:44;;;;;;;28.85;13.55;;;1.00;93.10;;;;;;5094172;28;20187;-71
2022/01/19 08:14:09;;;;;;;31.57;13.80;;;1.00;93.00;;;;;;5091628;28;20203;-72
2022/01/19 08:16:35;;;;;;;31.00;14.00;;;1.10;93.00;;;;;;5092631;28;20566;-73
2022/01/19 08:19:01;;;;;;;26.87;12.97;;;1.10;92.90;;;;;;5091880;28;20180;-73
2022/01/19 08:21:26;;;;;;;33.77;14.40;;;1.10;93.00;;;;;;5092768;28;20176;-70
2022/01/19 08:23:52;;;;;;;29.43;13.53;;;1.20;92.80;;;;;;5093094;28;20638;-72
2022/01/19 08:26:18;;;;;;;33.07;14.17;;;1.30;92.70;;;;;;5092391;28;20226;-71
2022/01/19 08:28:44;;;;;;;31.93;13.83;;;1.20;92.50;;;;;;5093371;28;20183;-73
2022/01/19 08:31:10;;;;;;;30.58;15.65;;;1.30;92.50;;;;;;5092883;28;20177;-73
2022/01/19 08:33:35;;;;;;;32.33;14.33;;;1.20;92.40;;;;;;5094533;28;20187;-70
2022/01/19 08:36:01;;;;;;;36.20;14.97;;;1.30;92.50;;;;;;5098984;28;20202;-73
2022/01/19 08:38:27;;;;;;;32.60;15.70;;;1.30;92.40;;;;;;5103593;28;20194;-72
2022/01/19 08:40:53;;;;;;;34.27;15.40;;;1.30;92.30;;;;;;5104382;28;20332;-70
2022/01/19 08:43:18;;;;;;;36.53;15.20;;;1.40;92.50;;;;;;5103422;28;20182;-72
2022/01/19 08:45:45;;;;;;;32.47;15.40;;;1.50;92.40;;;;;;5099411;28;20299;-72
2022/01/19 08:48:10;;;;;;;34.22;15.63;;;1.50;92.20;;;;;;5103692;28;20187;-72
2022/01/19 08:50:36;;;;;;;31.57;14.57;;;1.50;92.10;;;;;;5102569;28;20221;-72
2022/01/19 08:53:03;;;;;;;37.45;16.48;;;1.50;92.10;;;;;;5097226;28;20850;-71
2022/01/19 08:55:29;;;;;;;33.13;15.27;;;1.60;92.10;;;;;;5092200;28;20692;-72
2022/01/19 08:57:55;;;;;;;30.90;14.25;;;1.70;92.00;;;;;;5092561;28;20682;-72
2022/01/19 09:00:22;;;;;;;31.77;14.90;;;1.70;91.80;;;;;;5091379;28;20171;-70
2022/01/19 09:02:48;;;;;;;31.83;15.40;;;1.80;91.70;;;;;;5092249;28;20928;-71
2022/01/19 09:05:15;;;;;;;34.97;15.95;;;1.90;91.60;;;;;;5092299;28;20191;-73
2022/01/19 09:07:41;;;;;;;34.22;15.15;;;1.90;91.30;;;;;;5092875;28;20188;-72
2022/01/19 09:10:08;;;;;;;33.33;15.40;;;1.90;91.20;;;;;;5092422;28;20199;-73
2022/01/19 09:12:35;;;;;;;35.33;15.40;;;1.90;91.10;;;;;;5092858;28;20213;-71
2022/01/19 09:15:01;;;;;;;35.05;15.02;;;2.00;91.00;;;;;;5091909;28;20195;-73
2022/01/19 09:17:27;;;;;;;33.70;14.55;;;2.00;91.00;;;;;;5092293;28;20248;-73
2022/01/19 09:19:53;;;;;;;37.67;17.90;;;2.10;90.80;;;;;;5083184;28;20535;-71
2022/01/19 09:22:19;;;;;;;30.27;15.30;;;2.20;90.70;;;;;;5091971;28;20176;-72
2022/01/19 09:24:44;;;;;;;30.70;13.53;;;2.20;90.50;;;;;;5091430;28;20334;-73
2022/01/19 09:27:10;;;;;;;27.33;14.23;;;2.30;90.20;;;;;;5090375;28;20448;-71
2022/01/19 09:29:40;;;;;;;35.90;14.80;;;2.40;90.10;;;;;;5092374;28;20183;-74
2022/01/19 09:32:09;;;;;;;28.48;14.18;;;2.40;89.90;;;;;;5092933;28;21098;-70
2022/01/19 09:34:35;;;;;;;32.47;15.63;;;2.50;89.50;;;;;;5092463;28;20253;-71
2022/01/19 09:37:01;;;;;;;28.27;13.47;;;2.60;89.20;;;;;;5095301;28;20236;-72
2022/01/19 09:39:27;;;;;;;31.70;13.82;;;2.70;88.70;;;;;;5096590;28;20424;-73
2022/01/19 09:41:55;;;;;;;32.53;14.43;;;2.80;88.60;;;;;;5096524;28;20179;-72
2022/01/19 09:44:23;;;;;;;27.65;13.73;;;3.00;88.00;;;;;;5096470;28;20413;-73
2022/01/19 09:46:49;;;;;;;28.15;13.55;;;3.00;87.30;;;;;;5093848;28;20303;-71
2022/01/19 09:49:17;;;;;;;27.10;12.83;;;3.10;87.00;;;;;;5095136;28;20236;-70
2022/01/19 09:51:48;;;;;;;28.25;13.77;;;3.10;86.60;;;;;;5095007;28;20508;-73
2022/01/19 09:54:19;;;;;;;25.55;13.25;;;3.20;86.30;;;;;;5094957;28;20304;-71
2022/01/19 09:56:45;;;;;;;33.45;13.70;;;3.30;86.20;;;;;;5093412;28;20540;-72
2022/01/19 09:59:15;;;;;;;27.40;13.17;;;3.30;85.70;;;;;;5094157;28;20668;-72
2022/01/19 10:02:01;;;;;;;24.00;11.90;;;3.40;85.20;;;;;;5091763;28;20418;-71
2022/01/19 10:04:33;;;;;;;23.03;12.20;;;3.50;84.70;;;;;;5097323;28;20201;-72
2022/01/19 10:07:12;;;;;;;28.63;12.57;;;3.60;84.00;;;;;;5091052;28;20531;-71
2022/01/19 10:09:59;;;;;;;27.10;13.05;;;3.70;83.60;;;;;;5099601;28;20431;-72
2022/01/19 10:18:14;;;;;;;23.13;12.00;;;3.90;82.40;;;;;;5096742;28;20439;-72
2022/01/19 10:20:40;;;;;;;24.53;11.10;;;4.00;81.80;;;;;;5098376;28;20444;-72
2022/01/19 10:23:36;;;;;;;24.80;11.27;;;4.10;80.90;;;;;;5097645;28;20517;-72
2022/01/19 10:26:10;;;;;;;25.60;10.80;;;4.10;80.50;;;;;;5087713;28;20455;-72
2022/01/19 10:28:54;;;;;;;26.27;11.27;;;4.20;80.60;;;;;;5094888;28;20520;-71
2022/01/19 10:31:20;;;;;;;24.23;11.30;;;4.30;80.00;;;;;;5095673;28;20417;-72
2022/01/19 10:34:08;;;;;;;23.97;11.27;;;4.50;79.20;;;;;;5095199;28;20424;-73
2022/01/19 10:36:46;;;;;;;19.60;11.03;;;4.60;79.30;;;;;;5094381;28;20606;-71
2022/01/19 10:39:13;;;;;;;21.47;10.23;;;5.00;78.60;;;;;;5095925;28;20441;-70
2022/01/19 10:42:04;;;;;;;21.23;10.80;;;5.50;77.80;;;;;;5094959;28;20413;-71
2022/01/19 10:44:43;;;;;;;20.10;10.10;;;6.10;74.90;;;;;;5094809;28;20607;-71
2022/01/19 10:47:10;;;;;;;24.70;10.90;;;6.70;72.70;;;;;;5089965;28;20487;-71
2022/01/19 10:49:56;;;;;;;21.93;11.47;;;7.10;70.20;;;;;;5094517;28;20939;-72
2022/01/19 10:52:34;;;;;;;21.23;10.70;;;7.60;69.70;;;;;;5095536;28;20401;-71
2022/01/19 10:55:03;;;;;;;16.20;8.77;;;8.10;68.80;;;;;;5095242;28;20804;-71
2022/01/19 10:57:30;;;;;;;19.43;10.53;;;8.50;65.30;;;;;;5096706;28;20436;-72
2022/01/19 11:00:20;;;;;;;23.70;11.13;;;8.80;64.10;;;;;;5094047;28;20448;-73
2022/01/19 11:02:48;;;;;;;19.77;10.50;;;8.80;63.40;;;;;;5095447;28;20419;-71
2022/01/19 11:05:14;;;;;;;20.63;11.17;;;8.80;63.80;;;;;;5095255;28;20401;-73
2022/01/19 11:07:40;;;;;;;17.60;10.27;;;8.90;63.20;;;;;;5093553;28;20413;-71
2022/01/19 11:10:10;;;;;;;17.33;10.20;;;9.00;63.40;;;;;;5094095;28;20413;-72
2022/01/19 11:12:44;;;;;;;20.20;10.33;;;9.30;63.50;;;;;;5093837;28;20433;-71
2022/01/19 11:15:12;;;;;;;17.37;10.60;;;9.50;61.60;;;;;;5093534;28;20472;-72
2022/01/19 11:17:37;;;;;;;21.60;10.67;;;9.40;60.40;;;;;;5093581;28;20897;-72
2022/01/19 11:20:07;;;;;;;19.90;11.00;;;9.00;61.00;;;;;;5093375;28;20405;-72
2022/01/19 11:22:36;;;;;;;20.57;12.07;;;8.60;62.80;;;;;;5093658;28;20225;-72
2022/01/19 11:25:07;;;;;;;25.07;12.63;;;8.10;64.20;;;;;;5093105;28;20426;-72
2022/01/19 11:27:38;;;;;;;29.40;13.03;;;7.60;67.00;;;;;;5093479;28;20773;-72
2022/01/19 11:30:34;;;;;;;33.97;14.60;;;6.80;70.10;;;;;;5092976;28;20448;-72
2022/01/19 11:33:12;;;;;;;24.30;12.53;;;6.40;72.00;;;;;;5082496;28;20833;-71
2022/01/19 11:35:39;;;;;;;30.73;13.00;;;6.10;73.20;;;;;;5092903;28;20464;-72
2022/01/19 11:38:28;;;;;;;29.80;13.20;;;6.00;73.90;;;;;;5093498;28;20417;-70
2022/01/19 11:40:54;;;;;;;25.50;14.20;;;5.80;74.90;;;;;;5084273;28;20417;-73
2022/01/19 11:43:25;;;;;;;28.40;14.27;;;5.60;75.50;;;;;;5092501;28;20409;-72
2022/01/19 11:45:52;;;;;;;30.20;14.23;;;5.60;76.10;;;;;;5091191;28;20552;-73
2022/01/19 11:48:20;;;;;;;27.77;13.30;;;5.50;76.80;;;;;;5093057;28;20529;-71
2022/01/19 11:50:47;;;;;;;31.40;14.07;;;5.40;77.00;;;;;;5092434;28;20789;-73
2022/01/19 11:53:14;;;;;;;27.10;13.30;;;5.30;77.40;;;;;;5093334;28;20773;-72
2022/01/19 11:55:42;;;;;;;33.10;15.13;;;5.30;77.60;;;;;;5092254;28;20553;-73
2022/01/19 11:58:13;;;;;;;23.80;12.27;;;5.30;77.60;;;;;;5092358;28;20417;-72
2022/01/19 12:00:40;;;;;;;30.17;13.77;;;5.40;77.30;;;;;;5092278;28;20425;-72
2022/01/19 12:03:35;;;;;;;28.83;13.87;;;5.50;77.10;;;;;;5092590;28;20784;-73
2022/01/19 12:06:00;;;;;;;26.97;13.40;;;5.40;76.80;;;;;;5088954;28;20429;-71
2022/01/19 12:08:33;;;;;;;29.23;14.30;;;5.50;76.40;;;;;;5092530;28;20424;-72
2022/01/19 12:11:12;;;;;;;27.73;14.93;;;5.50;75.90;;;;;;5089736;28;20175;-72
2022/01/19 12:19:04;;;;;;;34.10;15.43;;;5.40;77.30;;;;;;5093007;28;20440;-71
2022/01/19 12:21:32;;;;;;;28.33;13.00;;;5.30;77.60;;;;;;5093578;28;20747;-72
2022/01/19 12:24:25;;;;;;;27.53;12.97;;;5.30;77.70;;;;;;5094056;28;20462;-72
2022/01/19 12:26:59;;;;;;;25.37;12.07;;;5.30;77.80;;;;;;5096507;28;20480;-72
2022/01/19 12:29:38;;;;;;;24.10;11.70;;;5.20;78.00;;;;;;5098108;28;20442;-71
2022/01/19 12:32:16;;;;;;;23.93;11.67;;;5.00;78.40;;;;;;5095862;28;20501;-72
2022/01/19 12:34:46;;;;;;;22.70;11.10;;;5.00;79.00;;;;;;5099116;28;20524;-72
2022/01/19 12:37:33;;;;;;;22.10;11.50;;;5.00;78.90;;;;;;5098197;28;20835;-73
2022/01/19 12:40:00;;;;;;;25.63;13.10;;;5.10;78.90;;;;;;5090212;28;20422;-72
2022/01/19 12:42:41;;;;;;;21.70;11.20;;;5.10;79.00;;;;;;5092177;28;20449;-72
2022/01/19 12:45:27;;;;;;;24.70;10.93;;;5.10;78.90;;;;;;5088159;28;20983;-72
2022/01/19 12:47:54;;;;;;;22.83;11.10;;;5.10;78.60;;;;;;5092172;28;20429;-73
2022/01/19 12:50:20;;;;;;;24.10;11.97;;;5.20;78.90;;;;;;5097753;28;20457;-72
2022/01/19 12:52:50;;;;;;;21.40;11.00;;;5.50;77.80;;;;;;5092278;28;20482;-71
2022/01/19 12:55:21;;;;;;;24.00;11.23;;;5.70;76.50;;;;;;5091499;28;20222;-73
2022/01/19 12:57:48;;;;;;;23.87;10.93;;;5.90;75.90;;;;;;5090365;28;20512;-73
2022/01/19 13:00:26;;;;;;;25.53;11.40;;;6.20;75.40;;;;;;5091271;28;20510;-73
2022/01/19 13:02:52;;;;;;;15.13;9.17;;;6.50;74.30;;;;;;5091665;28;20468;-72
2022/01/19 13:05:20;;;;;;;22.33;10.27;;;6.70;74.00;;;;;;5091149;28;20456;-72
2022/01/19 13:07:53;;;;;;;19.77;10.27;;;7.00;73.30;;;;;;5091667;28;20649;-72
2022/01/19 13:10:40;;;;;;;21.10;10.77;;;7.20;71.60;;;;;;5092106;28;20849;-72
2022/01/19 13:13:11;;;;;;;25.83;11.40;;;7.20;70.70;;;;;;5085061;28;20472;-73
2022/01/19 13:15:40;;;;;;;21.47;10.40;;;7.20;70.50;;;;;;5091442;28;20464;-72
2022/01/19 13:18:06;;;;;;;17.30;10.73;;;7.30;70.70;;;;;;5091523;28;20842;-72
2022/01/19 13:20:32;;;;;;;18.03;10.53;;;7.20;70.20;;;;;;5092275;28;20456;-71
2022/01/19 13:22:58;;;;;;;23.20;11.43;;;7.20;70.50;;;;;;5093002;28;20920;-72
2022/01/19 13:25:27;;;;;;;23.33;11.27;;;7.20;71.00;;;;;;5091547;28;20512;-72
2022/01/19 13:27:55;;;;;;;18.17;10.13;;;7.30;70.20;;;;;;5092281;28;20791;-72
2022/01/19 13:30:27;;;;;;;20.00;10.63;;;7.30;70.50;;;;;;5092359;28;20409;-72
2022/01/19 13:32:54;;;;;;;22.03;10.70;;;7.20;70.70;;;;;;5092005;28;20421;-73
2022/01/19 13:35:21;;;;;;;18.47;10.00;;;7.20;70.80;;;;;;5091098;28;20778;-72
2022/01/19 13:37:55;;;;;;;21.87;10.70;;;7.30;70.40;;;;;;5091692;28;20518;-71
2022/01/19 13:40:31;;;;;;;18.47;10.17;;;7.30;70.10;;;;;;5091596;28;21088;-71
2022/01/19 13:43:03;;;;;;;18.50;9.87;;;7.10;70.20;;;;;;5084080;28;20436;-72
2022/01/19 13:50:55;;;;;;;17.53;10.33;;;6.90;71.60;;;;;;5090961;28;20524;-72
2022/01/19 13:53:50;;;;;;;22.57;10.00;;;6.80;71.40;;;;;;5091003;28;20418;-71
2022/01/19 13:56:24;;;;;;;22.27;10.20;;;6.70;72.30;;;;;;5085282;28;20456;-72
2022/01/19 13:59:14;;;;;;;19.70;9.37;;;6.60;72.30;;;;;;5090355;28;20415;-72
2022/01/19 14:01:50;;;;;;;18.30;9.70;;;6.60;72.70;;;;;;5090842;28;20429;-72
2022/01/19 14:04:16;;;;;;;16.67;9.73;;;6.70;72.90;;;;;;5091688;28;20828;-71
2022/01/19 14:06:45;;;;;;;18.53;10.20;;;6.80;72.70;;;;;;5090277;28;20440;-71
2022/01/19 14:09:23;;;;;;;15.70;8.70;;;6.90;72.10;;;;;;5090231;28;20421;-72
2022/01/19 14:11:50;;;;;;;16.93;9.00;;;6.90;71.70;;;;;;5090999;28;20811;-73
2022/01/19 14:14:25;;;;;;;16.50;9.23;;;7.00;71.70;;;;;;5091175;28;20498;-74
2022/01/19 14:16:53;;;;;;;21.00;9.57;;;7.10;71.30;;;;;;5090075;28;20892;-72
2022/01/19 14:19:27;;;;;;;16.30;9.03;;;7.20;70.80;;;;;;5090304;28;20587;-72
2022/01/19 14:21:56;;;;;;;16.20;8.87;;;7.30;70.50;;;;;;5084561;28;20412;-73
2022/01/19 14:24:22;;;;;;;12.70;6.33;;;7.40;69.90;;;;;;5090194;28;20405;-73
2022/01/19 14:26:56;;;;;;;11.97;6.40;;;7.00;67.30;;;;;;5093617;28;20518;-73
2022/01/19 14:29:23;;;;;;;11.83;6.40;;;6.80;67.70;;;;;;5093856;28;20419;-72